TNCA/AUA METAR and TAF weather

Enter ICAO airport designator
Station Type Date Time Source
TNCA METAR 2020/08/06 01:00 UTC NOAA

TNCA 060100Z 08019KT 9999 FEW019 29/24 Q1012 NOSIG


Station Type Date Time Source
TNCA Decoded METAR 2020/08/06 01:00 UTC NOAA

Queen Beatrix Airport, Aruba (TNCA) 12-30N 070-01W 33M
Aug 05, 2020 - 09:00 PM EDT / 2020.08.06 0100 UTC
Wind: from the E (080 degrees) at 22 MPH (19 KT):0
Visibility: greater than 7 mile(s):0
Sky conditions: mostly clear
Temperature: 84 F (29 C)
Dew Point: 75 F (24 C)
Relative Humidity: 74%
Pressure (altimeter): 29.88 in. Hg (1012 hPa)
ob: TNCA 060100Z 08019KT 9999 FEW019 29/24 Q1012 NOSIG
cycle: 1

Station Type Date Time Source
TNCA TAF 2020/08/05 18:06 UTC NOAA

TAF TNCA 051800Z 0518/0618 08023KT 9999 FEW028

Example: see airport list